Time;durP1;ratioP1;P1;durP2;ratioP2;P2;SDS_P1;SDS_P2;PMS_P1;PMS_P2;Temp;Humidity;BMP_temperature;BMP_pressure;BME280_temperature;BME280_humidity;BME280_pressure;Samples;Min_cycle;Max_cycle;Signal;HPM_P1;HPM_P2
2022/06/20 00:00:23;;;;;;;4.50;0.70;;;;;;;11.53;50.34;101340.19;4963713;28;20054;-81
2022/06/20 00:02:51;;;;;;;7.43;0.57;;;;;;;11.57;50.39;101331.34;4970240;28;20046;-83
2022/06/20 00:05:24;;;;;;;12.20;0.93;;;;;;;11.46;50.17;101343.06;4970454;28;20825;-81
2022/06/20 00:07:50;;;;;;;5.28;1.02;;;;;;;11.50;50.12;101329.84;4965832;28;20082;-81
2022/06/20 00:10:19;;;;;;;5.10;1.67;;;;;;;11.40;50.32;101311.88;4963646;28;20125;-80
2022/06/20 00:12:45;;;;;;;7.97;1.48;;;;;;;11.47;50.33;101330.81;4959427;28;20051;-81
2022/06/20 00:15:28;;;;;;;7.47;0.82;;;;;;;11.53;50.23;101325.38;4963594;28;20101;-82
2022/06/20 00:17:55;;;;;;;1.20;0.13;;;;;;;11.48;50.41;101316.81;4963372;28;20051;-83
2022/06/20 00:20:21;;;;;;;4.07;0.55;;;;;;;11.61;50.11;101317.22;4942735;28;20019;-82
2022/06/20 00:22:46;;;;;;;8.65;0.77;;;;;;;11.60;50.17;101315.53;4960974;28;20057;-80
2022/06/20 00:25:12;;;;;;;4.28;0.55;;;;;;;11.62;50.24;101324.16;4961229;28;20031;-81
2022/06/20 00:27:38;;;;;;;5.07;0.30;;;;;;;11.47;50.00;101333.44;4963630;28;20129;-80
2022/06/20 00:30:05;;;;;;;7.40;0.55;;;;;;;11.50;50.49;101319.38;4945809;28;20107;-80
2022/06/20 00:32:30;;;;;;;3.67;0.40;;;;;;;11.52;50.60;101304.47;4977542;28;20051;-82
2022/06/20 00:34:56;;;;;;;5.38;0.60;;;;;;;11.53;50.40;101306.16;4964119;28;20408;-81
2022/06/20 00:37:22;;;;;;;7.25;0.50;;;;;;;11.51;50.32;101318.47;4947018;28;20046;-83
2022/06/20 00:39:49;;;;;;;3.10;0.70;;;;;;;11.45;50.29;101323.03;4963621;28;20066;-79
2022/06/20 00:42:15;;;;;;;6.82;0.73;;;;;;;11.42;50.48;101323.16;4961202;28;20211;-79
2022/06/20 00:44:48;;;;;;;3.70;0.52;;;;;;;11.37;50.87;101330.28;4961957;28;20497;-82
2022/06/20 00:47:18;;;;;;;2.97;0.38;;;;;;;11.32;51.09;101328.75;4960325;28;20128;-81
2022/06/20 00:49:54;;;;;;;3.03;0.50;;;;;;;11.16;51.14;101336.31;4972262;28;20038;-82
2022/06/20 00:52:29;;;;;;;2.53;1.00;;;;;;;10.71;53.09;101308.19;4963216;28;20046;-81
2022/06/20 00:55:01;;;;;;;4.53;0.47;;;;;;;11.05;51.83;101295.66;4965862;28;20118;-84
2022/06/20 00:57:38;;;;;;;5.60;0.90;;;;;;;11.27;51.94;101305.38;4957549;28;20046;-82
2022/06/20 01:00:12;;;;;;;3.78;0.90;;;;;;;11.30;51.84;101302.63;4952195;28;20610;-83
2022/06/20 01:02:43;;;;;;;7.15;0.70;;;;;;;11.42;51.39;101307.44;4979502;28;20526;-81
2022/06/20 01:05:24;;;;;;;4.65;0.50;;;;;;;11.39;51.40;101320.63;4954413;28;20395;-79
2022/06/20 01:08:13;;;;;;;3.60;0.52;;;;;;;11.45;51.39;101316.94;4949724;28;20058;-77
2022/06/20 01:11:05;;;;;;;4.95;0.40;;;;;;;11.44;51.78;101316.09;4980806;28;20073;-82
2022/06/20 01:13:30;;;;;;;2.77;0.57;;;;;;;11.41;51.96;101310.94;4941347;28;20250;-82
2022/06/20 01:16:26;;;;;;;3.13;1.13;;;;;;;11.23;52.75;101301.16;4949146;28;20309;-80
2022/06/20 01:18:53;;;;;;;2.65;0.70;;;;;;;11.04;53.29;101307.06;4968708;28;20334;-81
2022/06/20 01:21:23;;;;;;;2.78;0.90;;;;;;;11.07;53.47;101315.69;4962705;28;20442;-82
2022/06/20 01:24:07;;;;;;;3.92;0.40;;;;;;;11.11;53.64;101310.31;4961470;28;20097;-81
2022/06/20 01:26:55;;;;;;;2.97;0.32;;;;;;;11.12;53.82;101314.63;4963867;28;20480;-80
2022/06/20 01:29:22;;;;;;;7.65;0.90;;;;;;;11.09;53.94;101306.03;4962049;28;20045;-81
2022/06/20 01:31:51;;;;;;;2.15;0.38;;;;;;;11.08;53.97;101318.25;4962011;28;20045;-78
2022/06/20 01:34:18;;;;;;;7.78;1.15;;;;;;;10.93;54.39;101330.09;4964117;28;20046;-82
2022/06/20 01:39:38;;;;;;;2.30;0.30;;;;;;;10.87;54.71;101334.69;4969202;28;20039;-81
2022/06/20 01:42:20;;;;;;;2.70;0.70;;;;;;;10.83;54.67;101326.09;4965619;28;20030;-81
2022/06/20 01:45:04;;;;;;;2.53;0.65;;;;;;;10.81;54.73;101325.25;4957607;28;20066;-82
2022/06/20 01:47:32;;;;;;;4.82;1.00;;;;;;;10.83;54.98;101328.69;4955219;28;20061;-82
2022/06/20 01:50:05;;;;;;;7.90;1.42;;;;;;;10.83;54.74;101326.09;4962374;28;20374;-79
2022/06/20 01:52:40;;;;;;;3.33;0.75;;;;;;;10.79;54.80;101312.25;4943946;28;20456;-82
2022/06/20 01:55:14;;;;;;;2.47;0.57;;;;;;;10.85;54.81;101316.44;4945818;28;20034;-81
2022/06/20 01:57:43;;;;;;;2.55;0.40;;;;;;;10.85;54.45;101305.97;4960737;28;20519;-81
2022/06/20 02:00:14;;;;;;;1.63;0.50;;;;;;;10.77;54.72;101298.38;4961710;28;20043;-81
2022/06/20 02:02:47;;;;;;;5.00;0.63;;;;;;;10.69;54.60;101299.53;4957624;28;20571;-83
2022/06/20 02:05:17;;;;;;;3.75;0.98;;;;;;;10.63;55.03;101298.81;4978732;28;20035;-82
2022/06/20 02:07:43;;;;;;;5.82;0.77;;;;;;;10.58;55.06;101292.88;4962059;28;20038;-82
2022/06/20 02:10:16;;;;;;;1.13;0.50;;;;;;;10.60;55.33;101291.09;4963734;28;20053;-80
2022/06/20 02:12:43;;;;;;;6.88;0.45;;;;;;;10.57;55.07;101296.44;4955317;28;20462;-81
2022/06/20 02:15:16;;;;;;;2.75;0.75;;;;;;;10.54;54.96;101299.13;4960451;28;20050;-80
2022/06/20 02:17:44;;;;;;;2.70;0.80;;;;;;;10.39;54.98;101302.22;4960533;28;20047;-82
2022/06/20 02:20:15;;;;;;;2.80;0.90;;;;;;;10.29;55.13;101312.13;4960190;28;20035;-83
2022/06/20 02:22:43;;;;;;;2.67;0.60;;;;;;;10.06;55.46;101315.47;4959047;28;20718;-79
2022/06/20 02:25:14;;;;;;;2.97;1.10;;;;;;;10.00;55.91;101318.28;4958919;28;20031;-81
2022/06/20 02:27:45;;;;;;;6.07;1.08;;;;;;;9.96;56.09;101327.94;4960967;28;20066;-83
2022/06/20 02:30:12;;;;;;;2.75;0.65;;;;;;;10.03;56.18;101320.78;4960401;28;20138;-80
2022/06/20 02:32:47;;;;;;;4.60;0.63;;;;;;;10.11;55.81;101318.78;4960819;28;20034;-78
2022/06/20 02:35:15;;;;;;;8.23;1.13;;;;;;;10.08;55.95;101316.28;4974908;28;20048;-80
2022/06/20 02:37:41;;;;;;;4.90;0.90;;;;;;;10.07;55.82;101329.38;4960479;28;20109;-81
2022/06/20 02:40:11;;;;;;;4.78;0.88;;;;;;;10.00;55.72;101331.31;4974117;28;20031;-82
2022/06/20 02:42:48;;;;;;;1.98;0.50;;;;;;;9.98;55.35;101320.91;4979762;28;20049;-82
2022/06/20 02:45:15;;;;;;;1.80;0.93;;;;;;;9.95;55.53;101307.13;4964345;28;20077;-82
2022/06/20 02:47:46;;;;;;;5.07;1.00;;;;;;;9.82;55.78;101301.41;4978681;28;20031;-84
2022/06/20 02:50:13;;;;;;;5.22;1.02;;;;;;;9.67;55.73;101307.03;4964885;28;20035;-81
2022/06/20 02:52:52;;;;;;;6.85;0.88;;;;;;;9.55;56.11;101313.47;4957647;28;20043;-83
2022/06/20 02:55:18;;;;;;;2.38;0.75;;;;;;;9.48;56.20;101307.59;4949223;28;20031;-82
2022/06/20 02:57:49;;;;;;;5.70;0.43;;;;;;;9.46;56.40;101305.91;4983577;28;20129;-79
2022/06/20 03:00:25;;;;;;;3.35;0.75;;;;;;;9.39;56.20;101323.50;4962077;28;20500;-79
2022/06/20 03:03:01;;;;;;;3.67;0.63;;;;;;;9.38;56.60;101321.78;4947016;28;20476;-80
2022/06/20 03:05:28;;;;;;;6.10;0.60;;;;;;;9.34;56.46;101320.16;4960429;28;20050;-80
2022/06/20 03:07:54;;;;;;;2.15;1.17;;;;;;;9.32;56.38;101317.59;4979022;28;20043;-80
2022/06/20 03:10:33;;;;;;;10.55;1.10;;;;;;;9.22;56.78;101326.56;4964968;28;20264;-81
2022/06/20 03:12:59;;;;;;;1.77;0.73;;;;;;;9.16;56.96;101329.31;4946960;28;20098;-81
2022/06/20 03:15:25;;;;;;;2.70;0.50;;;;;;;9.18;57.05;101337.97;4948638;28;20209;-81
2022/06/20 03:17:53;;;;;;;4.13;0.63;;;;;;;9.21;56.91;101335.28;4963573;28;20046;-80
2022/06/20 03:20:21;;;;;;;3.70;0.50;;;;;;;9.22;56.84;101339.59;4979694;28;20125;-80
2022/06/20 03:22:57;;;;;;;4.90;0.90;;;;;;;9.23;56.64;101333.50;4963080;28;20039;-79
2022/06/20 03:25:22;;;;;;;2.55;0.60;;;;;;;9.11;56.63;101328.59;4964776;28;20026;-81
2022/06/20 03:27:52;;;;;;;5.57;0.57;;;;;;;9.13;56.69;101326.81;4963452;28;20050;-80
2022/06/20 03:30:29;;;;;;;6.18;0.82;;;;;;;9.11;56.95;101331.22;4964081;28;20583;-80
2022/06/20 03:32:56;;;;;;;4.88;0.75;;;;;;;9.01;57.15;101334.94;4967195;28;20050;-81
2022/06/20 03:35:22;;;;;;;6.15;0.70;;;;;;;9.07;57.02;101346.06;4966734;28;20030;-83
2022/06/20 03:37:48;;;;;;;4.15;0.73;;;;;;;9.13;57.42;101342.47;4966674;28;20046;-82
2022/06/20 03:40:14;;;;;;;2.55;0.85;;;;;;;9.28;57.05;101331.63;4966361;28;20406;-81
2022/06/20 03:42:40;;;;;;;6.57;1.75;;;;;;;9.34;56.87;101326.25;4966153;28;20042;-83
2022/06/20 03:45:07;;;;;;;2.17;0.63;;;;;;;9.37;56.60;101322.69;4965980;28;20023;-81
2022/06/20 03:47:44;;;;;;;3.03;0.85;;;;;;;9.38;56.47;101325.22;4982117;28;20594;-84
2022/06/20 03:50:23;;;;;;;4.15;0.98;;;;;;;9.37;56.63;101326.16;4974846;28;20027;-80
2022/06/20 03:53:02;;;;;;;5.57;1.25;;;;;;;9.33;56.56;101329.72;4966022;28;20057;-82
2022/06/20 03:56:11;;;;;;;5.32;1.05;;;;;;;9.32;56.51;101334.97;4965201;28;20027;-82
2022/06/20 03:58:57;;;;;;;4.07;1.30;;;;;;;9.37;56.67;101323.53;4925248;29;20062;-82
2022/06/20 04:01:30;;;;;;;2.75;1.00;;;;;;;9.45;57.03;101323.31;4910672;29;20107;-84
2022/06/20 04:04:11;;;;;;;2.38;0.80;;;;;;;9.54;56.44;101323.06;4926269;28;20046;-82
2022/06/20 04:07:25;;;;;;;7.05;1.65;;;;;;;9.54;56.91;101322.19;4964159;28;20054;-82
2022/06/20 04:13:21;;;;;;;2.65;0.70;;;;;;;9.66;56.76;101321.84;4963763;28;20085;-82
2022/06/20 04:16:13;;;;;;;3.65;1.17;;;;;;;10.14;55.74;101317.84;4889642;29;20178;-81
2022/06/20 04:18:54;;;;;;;3.30;1.05;;;;;;;10.43;55.28;101320.38;4974540;28;20046;-81
2022/06/20 04:21:25;;;;;;;5.35;1.10;;;;;;;10.50;54.79;101318.41;4974139;28;20145;-82
2022/06/20 04:24:31;;;;;;;5.25;0.88;;;;;;;10.63;54.23;101311.88;4959876;28;20046;-83
2022/06/20 04:26:56;;;;;;;4.30;0.95;;;;;;;10.67;53.65;101311.81;4956160;28;20093;-82
2022/06/20 04:29:40;;;;;;;4.38;1.40;;;;;;;10.80;54.35;101318.31;4965590;28;20133;-80
2022/06/20 04:32:09;;;;;;;3.00;0.73;;;;;;;10.79;54.03;101309.63;4965940;28;20039;-82
2022/06/20 04:34:43;;;;;;;6.07;0.73;;;;;;;10.93;52.94;101310.94;4967989;28;20176;-82
2022/06/20 04:37:34;;;;;;;2.88;0.80;;;;;;;10.90;53.01;101309.28;4960948;28;20050;-82
2022/06/20 04:40:11;;;;;;;4.85;0.52;;;;;;;10.90;52.95;101309.28;4964003;28;20034;-84
2022/06/20 04:42:40;;;;;;;2.80;0.75;;;;;;;10.84;53.07;101305.13;4961809;28;20057;-83
2022/06/20 04:45:37;;;;;;;2.80;1.30;;;;;;;10.79;53.07;101309.63;4945954;28;20042;-82
2022/06/20 04:48:13;;;;;;;3.92;0.40;;;;;;;10.92;52.09;101312.69;4961642;28;20045;-81
2022/06/20 04:50:44;;;;;;;2.15;0.65;;;;;;;10.88;52.58;101305.84;4961791;28;20129;-79
2022/06/20 04:53:13;;;;;;;4.18;0.88;;;;;;;10.65;52.92;101298.78;4954849;28;21332;-81
2022/06/20 04:55:43;;;;;;;3.60;0.68;;;;;;;10.82;52.87;101303.47;4963085;28;20522;-82
2022/06/20 04:58:14;;;;;;;1.65;0.60;;;;;;;11.07;52.32;101292.16;4964736;28;20062;-83
2022/06/20 05:00:43;;;;;;;3.50;0.40;;;;;;;11.07;51.96;101284.31;4947379;28;20034;-82
2022/06/20 05:03:13;;;;;;;2.83;0.47;;;;;;;11.24;52.64;101295.88;4977749;28;20047;-82
2022/06/20 05:05:41;;;;;;;6.18;1.35;;;;;;;11.18;51.92;101295.25;4961756;28;20035;-81
2022/06/20 05:08:12;;;;;;;3.25;1.42;;;;;;;11.42;51.52;101290.88;4962976;28;20054;-82
2022/06/20 05:10:55;;;;;;;1.52;0.70;;;;;;;11.56;50.15;101293.00;4959867;28;20050;-80
2022/06/20 05:13:23;;;;;;;3.25;0.47;;;;;;;12.45;49.50;101284.28;4964407;28;20038;-82
2022/06/20 05:15:51;;;;;;;2.60;0.85;;;;;;;13.98;46.77;101281.88;4977309;28;20035;-81
2022/06/20 05:18:30;;;;;;;4.65;0.55;;;;;;;14.40;46.31;101277.25;4960968;28;20121;-80
2022/06/20 05:21:00;;;;;;;2.25;0.80;;;;;;;16.10;42.23;101288.47;4959381;28;20074;-81
2022/06/20 05:23:35;;;;;;;3.13;0.60;;;;;;;17.96;37.48;101272.78;4957308;28;20512;-81
2022/06/20 05:26:02;;;;;;;1.30;0.50;;;;;;;19.74;32.77;101272.16;4973348;28;20041;-80
2022/06/20 05:28:32;;;;;;;9.98;0.90;;;;;;;20.22;33.06;101280.16;4962044;28;20035;-83
2022/06/20 05:30:59;;;;;;;3.08;0.40;;;;;;;20.92;30.32;101269.47;4957832;28;20071;-83
2022/06/20 05:33:29;;;;;;;1.20;0.40;;;;;;;21.39;29.69;101264.00;4976798;28;20035;-83
2022/06/20 05:36:10;;;;;;;4.00;0.82;;;;;;;21.69;29.77;101258.06;4958580;28;20035;-80
2022/06/20 05:38:51;;;;;;;4.22;0.45;;;;;;;22.87;28.33;101252.66;4961989;28;20121;-82
2022/06/20 05:41:17;;;;;;;6.32;0.80;;;;;;;23.28;27.20;101250.91;4977831;28;20033;-82
2022/06/20 05:43:43;;;;;;;4.63;0.50;;;;;;;22.82;28.23;101257.53;4965537;28;20432;-83
2022/06/20 05:46:24;;;;;;;4.18;1.00;;;;;;;23.42;26.33;101261.16;4979465;28;20026;-81
2022/06/20 05:48:54;;;;;;;3.58;0.45;;;;;;;22.72;26.89;101251.34;4962866;28;20050;-79
2022/06/20 05:51:24;;;;;;;4.60;0.88;;;;;;;21.15;29.27;101258.84;4970379;28;20377;-83
2022/06/20 05:53:58;;;;;;;3.13;0.60;;;;;;;21.82;29.01;101265.03;4948065;28;20043;-80
2022/06/20 05:56:24;;;;;;;3.92;0.70;;;;;;;19.60;31.77;101271.34;4981154;28;20043;-82
2022/06/20 05:58:51;;;;;;;4.50;0.90;;;;;;;17.39;36.00;101279.00;4947389;28;20101;-81
2022/06/20 06:01:22;;;;;;;4.65;0.75;;;;;;;16.25;38.31;101281.47;4948578;28;20078;-83
2022/06/20 06:04:01;;;;;;;6.78;1.15;;;;;;;15.37;40.11;101276.63;4960588;28;20042;-83
2022/06/20 06:06:42;;;;;;;5.90;1.48;;;;;;;16.08;40.38;101287.69;4965583;28;20033;-83
2022/06/20 06:09:15;;;;;;;6.93;1.50;;;;;;;15.93;39.88;101282.34;4939169;28;20078;-83
2022/06/20 06:11:47;;;;;;;7.15;0.82;;;;;;;16.74;38.38;101284.72;4943116;28;20047;-83
2022/06/20 06:14:21;;;;;;;9.23;1.33;;;;;;;16.88;37.43;101294.47;4947216;28;20500;-84
2022/06/20 06:17:00;;;;;;;5.22;0.93;;;;;;;16.58;39.00;101302.41;4947836;28;20027;-83
2022/06/20 06:19:25;;;;;;;4.85;0.95;;;;;;;15.85;40.52;101305.63;4964064;28;20515;-84
2022/06/20 06:21:58;;;;;;;4.78;1.00;;;;;;;15.31;40.13;101300.66;4962625;28;20047;-83
2022/06/20 06:24:25;;;;;;;10.48;1.52;;;;;;;17.92;38.77;101308.31;4950489;28;20401;-82
2022/06/20 06:26:55;;;;;;;6.15;1.40;;;;;;;20.85;31.23;101299.28;4949313;28;20039;-83
2022/06/20 06:29:27;;;;;;;8.63;1.63;;;;;;;20.49;31.26;101304.59;4958231;28;20035;-82
2022/06/20 06:31:59;;;;;;;5.22;0.90;;;;;;;19.86;31.52;101311.03;4961214;28;20058;-83
2022/06/20 06:34:44;;;;;;;6.25;1.33;;;;;;;17.26;35.44;101306.28;4952991;28;20125;-84
2022/06/20 06:37:16;;;;;;;7.03;0.90;;;;;;;15.64;38.32;101309.44;4949993;28;20047;-83
2022/06/20 06:40:06;;;;;;;8.18;1.70;;;;;;;14.23;41.92;101313.09;4978376;28;20039;-81
2022/06/20 06:42:33;;;;;;;6.55;0.90;;;;;;;13.82;42.44;101312.44;4966276;28;20314;-79
2022/06/20 06:44:59;;;;;;;10.43;1.90;;;;;;;13.20;43.94;101309.94;4964568;28;20033;-80
2022/06/20 06:47:38;;;;;;;7.00;1.30;;;;;;;13.52;43.95;101315.53;4979498;28;20046;-82
2022/06/20 06:50:25;;;;;;;9.18;2.08;;;;;;;18.47;34.89;101306.50;4942161;28;20069;-82
2022/06/20 06:53:00;;;;;;;6.93;0.88;;;;;;;19.55;31.22;101318.56;4961270;28;20049;-79
2022/06/20 06:55:39;;;;;;;5.53;1.65;;;;;;;18.16;33.20;101320.88;4977067;28;20077;-81
2022/06/20 06:58:14;;;;;;;10.50;1.65;;;;;;;17.74;34.21;101314.75;4974745;28;20077;-80
2022/06/20 07:00:43;;;;;;;6.47;1.00;;;;;;;18.36;32.50;101322.25;4963188;28;20039;-81
2022/06/20 07:03:16;;;;;;;2.50;0.98;;;;;;;17.15;35.49;101334.19;4948039;28;20045;-81
2022/06/20 07:05:48;;;;;;;8.43;1.15;;;;;;;18.19;33.42;101316.28;4953990;28;20039;-81
2022/06/20 07:08:18;;;;;;;4.85;1.33;;;;;;;20.96;29.34;101319.72;4945410;28;20209;-81
2022/06/20 07:10:57;;;;;;;7.65;0.70;;;;;;;20.50;29.22;101316.06;4964929;28;20039;-81
2022/06/20 07:13:34;;;;;;;7.43;1.05;;;;;;;22.51;26.46;101313.41;4975392;28;20310;-82
2022/06/20 07:16:02;;;;;;;3.70;0.40;;;;;;;24.15;23.43;101316.94;4977763;28;20100;-80
2022/06/20 07:18:46;;;;;;;4.45;0.73;;;;;;;21.40;26.02;101312.72;4962111;28;20046;-81
2022/06/20 07:21:15;;;;;;;9.90;0.70;;;;;;;21.33;26.99;101313.22;4973162;28;20031;-80
2022/06/20 07:23:42;;;;;;;4.03;0.85;;;;;;;22.71;24.85;101313.59;4944232;28;20051;-81
2022/06/20 07:26:09;;;;;;;2.55;0.32;;;;;;;20.91;26.77;101315.59;4962930;28;20027;-82
2022/06/20 07:28:48;;;;;;;1.90;0.80;;;;;;;21.62;25.99;101310.06;4967510;28;20045;-83
2022/06/20 07:31:17;;;;;;;4.10;1.13;;;;;;;21.50;25.95;101317.22;4959215;28;20031;-81
2022/06/20 07:33:59;;;;;;;4.22;0.60;;;;;;;20.81;27.46;101327.03;4960619;28;20085;-82
2022/06/20 07:36:28;;;;;;;2.78;0.95;;;;;;;18.79;30.46;101317.59;4973701;28;20054;-77
2022/06/20 07:39:30;;;;;;;3.05;0.73;;;;;;;16.70;34.47;101322.78;4998522;28;20062;-78
2022/06/20 07:42:03;;;;;;;4.60;0.70;;;;;;;15.68;37.52;101322.34;4962498;28;20051;-78
2022/06/20 07:44:34;;;;;;;5.25;1.20;;;;;;;14.69;39.06;101331.88;4987246;28;20019;-79
2022/06/20 07:47:09;;;;;;;5.70;0.95;;;;;;;17.28;35.55;101334.31;4984311;28;20035;-78
2022/06/20 07:49:42;;;;;;;8.60;1.20;;;;;;;18.31;32.68;101330.50;4988661;28;20027;-77
2022/06/20 07:52:12;;;;;;;4.20;0.88;;;;;;;17.78;33.05;101333.00;4967782;28;20026;-77
2022/06/20 07:54:46;;;;;;;5.57;0.82;;;;;;;16.48;35.39;101341.66;5003439;28;20066;-77
2022/06/20 07:57:21;;;;;;;4.25;0.73;;;;;;;16.16;35.21;101340.88;4985096;28;20092;-77
2022/06/20 07:59:53;;;;;;;5.20;0.90;;;;;;;18.09;33.51;101335.47;4962272;28;20046;-80
2022/06/20 08:02:34;;;;;;;2.50;0.77;;;;;;;18.20;31.66;101333.00;4977446;28;20057;-79
2022/06/20 08:05:03;;;;;;;6.72;1.35;;;;;;;16.57;33.75;101340.28;4949657;28;20038;-81
2022/06/20 08:07:35;;;;;;;6.18;0.95;;;;;;;15.51;35.42;101348.78;4960795;28;20034;-79
2022/06/20 08:10:07;;;;;;;6.68;1.15;;;;;;;14.91;37.09;101341.34;4960767;28;20753;-81
2022/06/20 08:12:54;;;;;;;4.50;0.85;;;;;;;15.29;37.62;101341.16;4961006;28;20385;-82
2022/06/20 08:15:28;;;;;;;4.95;0.90;;;;;;;15.56;37.02;101341.47;4961118;28;20069;-81
2022/06/20 08:17:54;;;;;;;5.97;0.73;;;;;;;15.54;36.16;101346.81;4976910;28;20038;-80
2022/06/20 08:20:24;;;;;;;6.47;0.50;;;;;;;15.34;36.91;101349.66;4961808;28;20084;-80
2022/06/20 08:22:59;;;;;;;7.65;0.60;;;;;;;15.92;36.27;101346.53;4964113;28;20042;-77
2022/06/20 08:25:34;;;;;;;5.40;0.63;;;;;;;16.81;35.38;101352.06;4948490;28;20027;-81
2022/06/20 08:28:16;;;;;;;5.80;1.27;;;;;;;15.79;37.14;101356.03;4967014;28;20085;-80
2022/06/20 08:30:47;;;;;;;7.85;1.17;;;;;;;15.03;37.83;101345.97;4983780;28;20041;-82
2022/06/20 08:33:46;;;;;;;3.28;0.60;;;;;;;14.75;38.35;101357.06;4966701;28;20444;-78
2022/06/20 08:36:26;;;;;;;2.10;0.30;;;;;;;14.36;39.76;101358.88;4963175;28;20034;-78
2022/06/20 08:39:15;;;;;;;2.83;0.50;;;;;;;17.86;33.36;101351.00;4960176;28;20049;-78
2022/06/20 08:42:11;;;;;;;4.43;1.45;;;;;;;19.59;29.50;101346.56;4942427;28;20059;-81
2022/06/20 08:45:04;;;;;;;2.72;0.70;;;;;;;22.23;25.17;101340.69;4961276;28;20620;-81
2022/06/20 08:47:46;;;;;;;7.22;0.50;;;;;;;24.67;22.54;101331.84;4955513;28;20082;-80
2022/06/20 08:50:25;;;;;;;;;;;;;;;25.33;22.78;101338.97;4958553;28;20447;-81
2022/06/20 08:53:23;;;;;;;5.38;0.43;;;;;;;24.79;22.05;101331.50;4947850;28;19976;-80
2022/06/20 08:56:07;;;;;;;1.63;0.65;;;;;;;24.45;21.36;101339.16;4967455;28;21518;-81
2022/06/20 08:59:02;;;;;;;1.75;0.30;;;;;;;23.92;22.34;101347.53;4977555;28;20167;-80
2022/06/20 09:01:49;;;;;;;2.30;0.30;;;;;;;23.09;23.53;101349.44;4983014;28;20059;-80
2022/06/20 09:04:20;;;;;;;2.15;0.40;;;;;;;22.46;24.60;101355.56;4967151;28;20634;-81
2022/06/20 09:07:17;;;;;;;3.28;0.50;;;;;;;18.59;29.46;101355.16;4968228;28;20403;-80
2022/06/20 09:09:57;;;;;;;3.08;0.30;;;;;;;18.30;30.86;101354.44;4982887;28;20046;-82
2022/06/20 09:12:31;;;;;;;3.70;0.22;;;;;;;17.93;31.07;101351.47;4981500;28;20042;-81
2022/06/20 09:15:28;;;;;;;1.83;0.30;;;;;;;18.09;32.10;101357.47;4967600;28;20723;-81
2022/06/20 09:18:15;;;;;;;6.28;0.43;;;;;;;19.27;30.71;101362.03;4963580;28;20566;-82
2022/06/20 09:21:06;;;;;;;1.80;0.68;;;;;;;18.37;31.46;101364.50;4969107;28;20034;-79
2022/06/20 09:23:37;;;;;;;5.57;0.40;;;;;;;17.50;33.11;101362.94;4966394;28;20082;-81
2022/06/20 09:26:29;;;;;;;2.47;0.30;;;;;;;17.19;33.38;101371.84;4967889;28;20035;-81
2022/06/20 09:29:13;;;;;;;4.90;0.40;;;;;;;16.30;33.92;101377.00;4984393;28;20066;-81
2022/06/20 09:31:57;;;;;;;5.18;0.57;;;;;;;16.62;34.08;101368.13;4969831;28;20404;-82
2022/06/20 09:34:48;;;;;;;1.17;0.30;;;;;;;19.32;30.31;101364.34;4966771;28;20089;-80
2022/06/20 09:37:24;;;;;;;2.58;0.75;;;;;;;20.80;27.82;101367.81;4966059;28;20134;-83
2022/06/20 09:40:13;;;;;;;1.83;0.20;;;;;;;21.51;25.93;101356.16;4980839;28;20039;-79
2022/06/20 09:42:57;;;;;;;1.55;0.32;;;;;;;21.52;26.06;101351.66;4966099;28;20098;-81
2022/06/20 09:45:38;;;;;;;2.78;0.22;;;;;;;21.70;25.84;101365.31;4951460;28;20031;-80
2022/06/20 09:48:58;;;;;;;4.72;1.15;;;;;;;22.04;25.79;101358.09;4936571;28;20089;-78
2022/06/20 09:51:52;;;;;;;2.55;0.30;;;;;;;19.74;28.06;101360.50;4867498;29;20036;-80
2022/06/20 09:54:31;;;;;;;1.42;0.43;;;;;;;19.29;28.89;101368.06;4882222;29;20131;-79
2022/06/20 09:57:02;;;;;;;4.97;0.30;;;;;;;19.15;29.77;101357.59;4927753;28;20142;-79
2022/06/20 09:59:48;;;;;;;3.50;0.10;;;;;;;18.73;29.55;101362.16;4950571;28;20032;-78
2022/06/20 10:02:38;;;;;;;1.40;0.30;;;;;;;18.60;28.74;101359.47;4962593;28;20042;-79
2022/06/20 10:05:31;;;;;;;3.08;0.30;;;;;;;19.07;28.29;101355.44;4943392;28;20315;-79
2022/06/20 10:08:34;;;;;;;5.40;0.50;;;;;;;18.66;29.81;101367.03;4954396;28;20047;-83
2022/06/20 10:11:14;;;;;;;3.03;0.30;;;;;;;18.01;30.50;101373.00;4945689;28;20022;-79
2022/06/20 10:13:45;;;;;;;2.25;0.50;;;;;;;18.44;29.84;101373.72;4970552;28;20051;-78
2022/06/20 10:16:16;;;;;;;;;;;;;;;19.75;29.21;101364.88;4957835;28;20030;-79
2022/06/20 10:19:00;;;;;;;2.92;0.77;;;;;;;19.56;28.83;101370.63;4969269;28;20299;-82
2022/06/20 10:21:25;;;;;;;3.03;0.38;;;;;;;17.87;31.05;101368.56;4958685;28;20047;-81
2022/06/20 10:24:14;;;;;;;2.25;0.38;;;;;;;16.91;33.12;101380.56;4957659;28;20310;-81
2022/06/20 10:27:14;;;;;;;3.35;0.50;;;;;;;16.50;35.33;101386.44;4954922;28;20119;-82
2022/06/20 10:29:54;;;;;;;1.98;0.38;;;;;;;16.45;35.50;101389.31;4948951;28;20042;-81
2022/06/20 10:32:25;;;;;;;3.97;0.45;;;;;;;16.91;33.30;101383.19;4966081;28;20049;-81
2022/06/20 10:35:03;;;;;;;4.57;0.50;;;;;;;17.26;31.92;101385.53;4978684;28;20062;-80
2022/06/20 10:37:37;;;;;;;6.70;0.30;;;;;;;17.67;31.63;101382.19;4974010;28;20146;-80
2022/06/20 10:40:31;;;;;;;1.08;0.15;;;;;;;16.99;32.90;101391.53;4953094;28;20523;-82
2022/06/20 10:43:07;;;;;;;1.55;0.40;;;;;;;17.15;32.68;101388.81;4966796;28;20070;-80
2022/06/20 10:45:55;;;;;;;3.38;0.40;;;;;;;17.69;30.68;101390.88;4967110;28;20121;-82
2022/06/20 10:49:03;;;;;;;1.80;0.40;;;;;;;17.36;31.67;101392.81;4975939;28;20041;-80
2022/06/20 10:51:54;;;;;;;1.13;0.28;;;;;;;16.90;32.84;101405.28;4946080;28;20045;-80
2022/06/20 10:54:42;;;;;;;3.80;0.82;;;;;;;17.98;30.36;101400.50;4957407;28;20039;-80
2022/06/20 10:57:24;;;;;;;1.00;0.20;;;;;;;17.39;30.16;101405.00;4951743;28;20074;-81
2022/06/20 11:00:09;;;;;;;1.83;0.20;;;;;;;18.29;30.25;101392.41;4953890;28;20353;-80
2022/06/20 11:03:09;;;;;;;1.38;0.32;;;;;;;17.32;31.83;101403.66;4959967;28;20468;-79
2022/06/20 11:06:02;;;;;;;4.70;0.38;;;;;;;16.67;33.83;101415.34;4958541;28;20274;-81
2022/06/20 11:08:39;;;;;;;1.35;0.30;;;;;;;17.99;31.66;101407.47;4961167;28;20047;-77
2022/06/20 11:11:18;;;;;;;2.55;0.50;;;;;;;18.66;30.22;101414.69;4961157;28;20035;-82
2022/06/20 11:13:56;;;;;;;3.70;0.35;;;;;;;18.00;31.02;101416.25;4956504;28;20039;-79
2022/06/20 11:16:56;;;;;;;4.30;1.05;;;;;;;16.78;33.09;101426.16;4981023;28;20033;-82
2022/06/20 11:19:38;;;;;;;3.50;0.52;;;;;;;17.46;32.75;101424.81;4979707;28;20077;-81
2022/06/20 11:22:18;;;;;;;3.55;0.35;;;;;;;18.34;30.73;101420.28;4964399;28;20042;-81
2022/06/20 11:25:04;;;;;;;3.80;0.65;;;;;;;17.82;31.34;101426.16;4969179;28;20380;-83
2022/06/20 11:27:56;;;;;;;4.22;0.40;;;;;;;18.14;31.77;101423.28;4947798;28;20051;-81
2022/06/20 11:30:26;;;;;;;;;;;;;;;17.76;32.38;101424.78;4979545;28;20031;-82
2022/06/20 11:33:11;;;;;;;2.30;0.35;;;;;;;16.61;32.39;101434.16;4949029;28;19922;-82
2022/06/20 11:35:52;;;;;;;4.22;0.70;;;;;;;16.45;35.23;101428.06;4971528;28;20038;-81
2022/06/20 11:38:35;;;;;;;4.10;0.40;;;;;;;17.20;34.78;101431.66;4982135;28;20054;-80
2022/06/20 11:41:03;;;;;;;4.72;0.43;;;;;;;18.18;33.67;101425.66;4965795;28;20078;-77
2022/06/20 11:43:54;;;;;;;4.35;0.47;;;;;;;18.83;32.00;101426.78;4967155;28;20092;-80
2022/06/20 11:46:44;;;;;;;2.45;0.65;;;;;;;16.74;33.88;101444.88;4976951;28;20443;-81
2022/06/20 11:49:23;;;;;;;2.00;0.57;;;;;;;16.23;34.55;101428.41;4965902;28;20066;-80
2022/06/20 11:52:08;;;;;;;6.32;0.50;;;;;;;15.59;35.47;101434.41;4979157;28;20062;-83
2022/06/20 11:55:04;;;;;;;2.47;0.30;;;;;;;15.52;35.96;101426.88;4958952;28;20441;-82
2022/06/20 11:57:35;;;;;;;1.70;0.20;;;;;;;17.16;33.57;101431.00;4947796;28;20038;-81
2022/06/20 12:00:13;;;;;;;2.63;0.40;;;;;;;16.42;35.36;101429.09;4941875;28;20067;-81
2022/06/20 12:02:45;;;;;;;2.67;0.50;;;;;;;16.06;35.96;101440.69;4963160;28;20070;-82
2022/06/20 12:05:17;;;;;;;4.07;0.40;;;;;;;15.82;36.23;101445.50;4981697;28;20034;-83
2022/06/20 12:07:59;;;;;;;3.88;0.85;;;;;;;16.53;35.45;101436.38;4962987;28;20412;-81
2022/06/20 12:10:37;;;;;;;2.83;0.70;;;;;;;17.26;33.29;101436.56;4963713;28;20030;-83
2022/06/20 12:13:28;;;;;;;2.65;0.77;;;;;;;16.02;36.00;101448.88;4954984;28;20043;-85
2022/06/20 12:16:11;;;;;;;3.58;0.30;;;;;;;16.86;34.71;101453.91;4981088;28;20038;-79
2022/06/20 12:25:02;;;;;;;;;;;;;;;;;;;;;